createdAt,value
2022-11-25T00:00:18.144Z,1012.36
2022-11-25T00:01:18.052Z,1012.37
2022-11-25T00:02:18.136Z,1012.35
2022-11-25T00:03:18.022Z,1012.33
2022-11-25T00:04:17.952Z,1012.28
2022-11-25T00:05:17.912Z,1012.27
2022-11-25T00:06:17.933Z,1012.28
2022-11-25T00:07:17.859Z,1012.26
2022-11-25T00:08:17.810Z,1012.26
2022-11-25T00:09:17.763Z,1012.25
2022-11-25T00:10:17.729Z,1012.28
2022-11-25T00:11:17.693Z,1012.26
2022-11-25T00:12:17.702Z,1012.26
2022-11-25T00:13:17.610Z,1012.24
2022-11-25T00:14:25.515Z,1012.26
2022-11-25T00:15:17.538Z,1012.24
2022-11-25T00:16:17.579Z,1012.26
2022-11-25T00:17:17.479Z,1012.27
2022-11-25T00:18:17.486Z,1012.26
2022-11-25T00:19:18.023Z,1012.29
2022-11-25T00:20:17.361Z,1012.29
2022-11-25T00:21:17.363Z,1012.30
2022-11-25T00:22:17.289Z,1012.26
2022-11-25T00:23:17.253Z,1012.27
2022-11-25T00:24:17.296Z,1012.27
2022-11-25T00:25:17.187Z,1012.28
2022-11-25T00:26:17.155Z,1012.26
2022-11-25T00:27:17.104Z,1012.30
2022-11-25T00:28:17.067Z,1012.31
2022-11-25T00:29:17.031Z,1012.31
2022-11-25T00:30:17.056Z,1012.31
2022-11-25T00:31:17.028Z,1012.32
2022-11-25T00:32:16.926Z,1012.31
2022-11-25T00:33:16.887Z,1012.32
2022-11-25T00:34:16.911Z,1012.33
2022-11-25T00:35:16.818Z,1012.30
2022-11-25T00:36:16.835Z,1012.28
2022-11-25T00:37:16.762Z,1012.29
2022-11-25T00:38:16.713Z,1012.31
2022-11-25T00:39:16.680Z,1012.28
2022-11-25T00:40:16.631Z,1012.34
2022-11-25T00:41:16.597Z,1012.33
2022-11-25T00:42:16.612Z,1012.33
2022-11-25T00:43:16.526Z,1012.31
2022-11-25T00:44:16.582Z,1012.33
2022-11-25T00:45:16.459Z,1012.32
2022-11-25T00:46:16.491Z,1012.30
2022-11-25T00:47:16.448Z,1012.33
2022-11-25T00:48:16.352Z,1012.30
2022-11-25T00:49:16.317Z,1012.29
2022-11-25T00:50:16.284Z,1012.30
2022-11-25T00:51:16.237Z,1012.29
2022-11-25T00:52:16.204Z,1012.27
2022-11-25T00:53:16.227Z,1012.30
2022-11-25T00:54:16.131Z,1012.32
2022-11-25T00:55:16.105Z,1012.36
2022-11-25T00:56:16.068Z,1012.32
2022-11-25T00:57:16.030Z,1012.33
2022-11-25T00:58:15.987Z,1012.34
2022-11-25T00:59:16.009Z,1012.31
2022-11-25T01:00:15.915Z,1012.28
2022-11-25T01:01:15.900Z,1012.27
2022-11-25T01:02:15.917Z,1012.29
2022-11-25T01:03:15.815Z,1012.30
2022-11-25T01:04:15.834Z,1012.31
2022-11-25T01:05:15.737Z,1012.31
2022-11-25T01:06:15.709Z,1012.27
2022-11-25T01:07:15.745Z,1012.32
2022-11-25T01:08:15.627Z,1012.30
2022-11-25T01:09:15.590Z,1012.29
2022-11-25T01:10:15.613Z,1012.29
2022-11-25T01:11:15.525Z,1012.30
2022-11-25T01:12:15.523Z,1012.30
2022-11-25T01:13:15.450Z,1012.25
2022-11-25T01:14:15.492Z,1012.31
2022-11-25T01:15:15.383Z,1012.25
2022-11-25T01:16:15.385Z,1012.26
2022-11-25T01:17:15.311Z,1012.20
2022-11-25T01:18:15.266Z,1012.24
2022-11-25T01:19:15.315Z,1012.21
2022-11-25T01:20:15.190Z,1012.22
2022-11-25T01:21:15.155Z,1012.19
2022-11-25T01:22:15.118Z,1012.17
2022-11-25T01:23:15.098Z,1012.17
2022-11-25T01:24:15.111Z,1012.14
2022-11-25T01:25:15.015Z,1012.14
2022-11-25T01:26:14.973Z,1012.09
2022-11-25T01:27:14.944Z,1012.11
2022-11-25T01:28:14.913Z,1012.11
2022-11-25T01:29:14.871Z,1012.10
2022-11-25T01:30:14.877Z,1012.08
2022-11-25T01:31:14.849Z,1012.10
2022-11-25T01:32:14.758Z,1012.13
2022-11-25T01:33:14.729Z,1012.09
2022-11-25T01:34:14.722Z,1012.16
2022-11-25T01:35:14.658Z,1012.14
2022-11-25T01:36:14.668Z,1012.16
2022-11-25T01:37:14.574Z,1012.15
2022-11-25T01:38:14.551Z,1012.15
2022-11-25T01:39:14.495Z,1012.16
2022-11-25T01:40:14.470Z,1012.12
2022-11-25T01:41:15.421Z,1012.16
2022-11-25T01:42:14.436Z,1012.10
2022-11-25T01:43:14.362Z,1012.12
2022-11-25T01:44:14.322Z,1012.08
2022-11-25T01:45:14.279Z,1012.08
2022-11-25T01:46:14.257Z,1012.08
2022-11-25T01:47:14.224Z,1012.07
2022-11-25T01:48:14.239Z,1012.05
2022-11-25T01:49:14.138Z,1012.02
2022-11-25T01:50:14.103Z,1012.05
2022-11-25T01:51:14.065Z,1012.04
2022-11-25T01:52:14.021Z,1012.07
2022-11-25T01:53:13.991Z,1012.08
2022-11-25T01:54:14.006Z,1012.04
2022-11-25T01:55:13.929Z,1012.03
2022-11-25T01:56:13.881Z,1011.99
2022-11-25T01:57:13.841Z,1011.99
2022-11-25T01:58:13.796Z,1011.94
2022-11-25T01:59:13.770Z,1011.98
2022-11-25T02:00:13.779Z,1011.98
2022-11-25T02:01:13.738Z,1011.96
2022-11-25T02:02:13.732Z,1012.01
2022-11-25T02:03:13.622Z,1012.03
2022-11-25T02:04:13.582Z,1012.09
2022-11-25T02:05:13.540Z,1012.12
2022-11-25T02:06:13.576Z,1012.13
2022-11-25T02:07:13.621Z,1012.13
2022-11-25T02:08:13.445Z,1012.16
2022-11-25T02:09:13.392Z,1012.20
2022-11-25T02:10:13.363Z,1012.19
2022-11-25T02:11:13.314Z,1012.20
2022-11-25T02:12:13.289Z,1012.18
2022-11-25T02:13:13.299Z,1012.18
2022-11-25T02:14:13.213Z,1012.19
2022-11-25T02:15:13.183Z,1012.22
2022-11-25T02:16:13.199Z,1012.15
2022-11-25T02:17:13.100Z,1012.18
2022-11-25T02:18:13.121Z,1012.15
2022-11-25T02:19:13.026Z,1012.18
2022-11-25T02:20:13.004Z,1012.19
2022-11-25T02:21:12.948Z,1012.19
2022-11-25T02:22:12.913Z,1012.23
2022-11-25T02:23:12.959Z,1012.21
2022-11-25T02:24:12.842Z,1012.17
2022-11-25T02:25:12.794Z,1012.19
2022-11-25T02:26:12.767Z,1012.16
2022-11-25T02:27:12.731Z,1012.18
2022-11-25T02:28:12.758Z,1012.18
2022-11-25T02:29:12.653Z,1012.18
2022-11-25T02:30:12.620Z,1012.23
2022-11-25T02:31:12.635Z,1012.22
2022-11-25T02:32:12.545Z,1012.20
2022-11-25T02:33:12.506Z,1012.19
2022-11-25T02:34:12.525Z,1012.21
2022-11-25T02:35:12.429Z,1012.20
2022-11-25T02:36:12.395Z,1012.19
2022-11-25T02:37:12.353Z,1012.17
2022-11-25T02:38:12.360Z,1012.15
2022-11-25T02:39:12.287Z,1012.18
2022-11-25T02:40:12.303Z,1012.16
2022-11-25T02:41:12.208Z,1012.18
2022-11-25T02:42:12.177Z,1012.17
2022-11-25T02:43:12.130Z,1012.18
2022-11-25T02:44:12.099Z,1012.17
2022-11-25T02:45:12.056Z,1012.21
2022-11-25T02:46:15.069Z,1012.21
2022-11-25T02:47:11.991Z,1012.23
2022-11-25T02:48:11.948Z,1012.28
2022-11-25T02:49:11.916Z,1012.26
2022-11-25T02:50:11.885Z,1012.23
2022-11-25T02:51:11.838Z,1012.28
2022-11-25T02:52:11.875Z,1012.22
2022-11-25T02:53:11.771Z,1012.22
2022-11-25T02:54:11.733Z,1012.25
2022-11-25T02:55:11.701Z,1012.27
2022-11-25T02:56:11.678Z,1012.28
2022-11-25T02:57:11.623Z,1012.28
2022-11-25T02:58:11.645Z,1012.30
2022-11-25T02:59:11.551Z,1012.30
2022-11-25T03:00:11.516Z,1012.27
2022-11-25T03:01:11.507Z,1012.24
2022-11-25T03:02:12.515Z,1012.22
2022-11-25T03:03:11.401Z,1012.18
2022-11-25T03:04:11.370Z,1012.18
2022-11-25T03:05:11.325Z,1012.20
2022-11-25T03:06:11.303Z,1012.18
2022-11-25T03:07:11.331Z,1012.19
2022-11-25T03:08:11.217Z,1012.18
2022-11-25T03:09:11.181Z,1012.21
2022-11-25T03:10:11.150Z,1012.16
2022-11-25T03:11:11.109Z,1012.20
2022-11-25T03:12:11.122Z,1012.17
2022-11-25T03:13:11.047Z,1012.17
2022-11-25T03:14:11.000Z,1012.20
2022-11-25T03:15:11.006Z,1012.19
2022-11-25T03:16:10.968Z,1012.23
2022-11-25T03:17:10.949Z,1012.20
2022-11-25T03:18:10.851Z,1012.19
2022-11-25T03:19:10.827Z,1012.22
2022-11-25T03:20:10.787Z,1012.23
2022-11-25T03:21:10.753Z,1012.20
2022-11-25T03:22:10.774Z,1012.19
2022-11-25T03:23:10.678Z,1012.25
2022-11-25T03:24:10.633Z,1012.28
2022-11-25T03:25:10.605Z,1012.27
2022-11-25T03:26:10.565Z,1012.26
2022-11-25T03:27:10.533Z,1012.33
2022-11-25T03:28:10.538Z,1012.27
2022-11-25T03:29:10.469Z,1012.27
2022-11-25T03:30:10.413Z,1012.30
2022-11-25T03:31:10.393Z,1012.29
2022-11-25T03:32:10.393Z,1012.31
2022-11-25T03:33:10.316Z,1012.34
2022-11-25T03:34:10.322Z,1012.32
2022-11-25T03:35:10.243Z,1012.34
2022-11-25T03:36:10.201Z,1012.36
2022-11-25T03:37:10.202Z,1012.34
2022-11-25T03:38:10.123Z,1012.36
2022-11-25T03:39:10.098Z,1012.31
2022-11-25T03:40:10.109Z,1012.33
2022-11-25T03:41:10.025Z,1012.34
2022-11-25T03:42:09.983Z,1012.34
2022-11-25T03:43:09.950Z,1012.32
2022-11-25T03:44:09.908Z,1012.32
2022-11-25T03:45:09.918Z,1012.30
2022-11-25T03:46:09.960Z,1012.27
2022-11-25T03:47:09.808Z,1012.25
2022-11-25T03:48:09.761Z,1012.29
2022-11-25T03:49:09.731Z,1012.34
2022-11-25T03:50:09.691Z,1012.36
2022-11-25T03:51:09.656Z,1012.34
2022-11-25T03:52:09.677Z,1012.32
2022-11-25T03:53:09.587Z,1012.34
2022-11-25T03:54:09.553Z,1012.31
2022-11-25T03:55:09.518Z,1012.34
2022-11-25T03:56:09.477Z,1012.34
2022-11-25T03:57:09.440Z,1012.35
2022-11-25T03:58:09.459Z,1012.34
2022-11-25T03:59:09.368Z,1012.33
2022-11-25T04:00:09.346Z,1012.30
2022-11-25T04:01:09.323Z,1012.32
2022-11-25T04:02:09.319Z,1012.29
2022-11-25T04:03:09.242Z,1012.30
2022-11-25T04:04:09.240Z,1012.27
2022-11-25T04:05:09.154Z,1012.23
2022-11-25T04:06:09.169Z,1012.25
2022-11-25T04:07:09.114Z,1012.27
2022-11-25T04:08:09.083Z,1012.27
2022-11-25T04:09:09.009Z,1012.25
2022-11-25T04:10:09.018Z,1012.28
2022-11-25T04:11:08.947Z,1012.30
2022-11-25T04:12:08.893Z,1012.29
2022-11-25T04:13:09.151Z,1012.28
2022-11-25T04:14:08.822Z,1012.25
2022-11-25T04:15:08.793Z,1012.29
2022-11-25T04:16:08.763Z,1012.24
2022-11-25T04:17:08.778Z,1012.27
2022-11-25T04:18:08.682Z,1012.25
2022-11-25T04:19:08.702Z,1012.25
2022-11-25T04:20:08.605Z,1012.22
2022-11-25T04:21:08.593Z,1012.23
2022-11-25T04:22:08.542Z,1012.21
2022-11-25T04:23:08.505Z,1012.19
2022-11-25T04:24:08.479Z,1012.24
2022-11-25T04:25:08.502Z,1012.19
2022-11-25T04:26:08.385Z,1012.28
2022-11-25T04:27:08.371Z,1012.26
2022-11-25T04:28:08.321Z,1012.29
2022-11-25T04:29:08.295Z,1012.26
2022-11-25T04:30:08.249Z,1012.28
2022-11-25T04:31:08.407Z,1012.32
2022-11-25T04:32:08.169Z,1012.32
2022-11-25T04:33:08.149Z,1012.32
2022-11-25T04:34:08.104Z,1012.30
2022-11-25T04:35:08.105Z,1012.30
2022-11-25T04:36:08.022Z,1012.29
2022-11-25T04:37:08.055Z,1012.34
2022-11-25T04:38:07.956Z,1012.32
2022-11-25T04:39:07.927Z,1012.33
2022-11-25T04:40:07.884Z,1012.36
2022-11-25T04:41:07.851Z,1012.35
2022-11-25T04:42:07.906Z,1012.37
2022-11-25T04:43:10.647Z,1012.43
2022-11-25T04:44:07.741Z,1012.41
2022-11-25T04:45:24.412Z,1012.42
2022-11-25T04:46:15.152Z,1012.41
2022-11-25T04:47:07.673Z,1012.39
2022-11-25T04:48:07.643Z,1012.41
2022-11-25T04:49:07.566Z,1012.37
2022-11-25T04:50:07.523Z,1012.41
2022-11-25T04:51:07.490Z,1012.43
2022-11-25T04:52:07.459Z,1012.43
2022-11-25T04:53:07.421Z,1012.43
2022-11-25T04:54:07.430Z,1012.42
2022-11-25T04:55:07.346Z,1012.42
2022-11-25T04:56:07.319Z,1012.40
2022-11-25T04:57:07.285Z,1012.39
2022-11-25T04:58:07.233Z,1012.40
2022-11-25T04:59:07.208Z,1012.39
2022-11-25T05:00:07.234Z,1012.39
2022-11-25T05:01:07.156Z,1012.36
2022-11-25T05:02:07.108Z,1012.36
2022-11-25T05:03:07.062Z,1012.35
2022-11-25T05:04:07.023Z,1012.35
2022-11-25T05:05:06.987Z,1012.35
2022-11-25T05:06:06.992Z,1012.38
2022-11-25T05:07:06.916Z,1012.36
2022-11-25T05:08:06.873Z,1012.35
2022-11-25T05:09:06.839Z,1012.35
2022-11-25T05:10:06.805Z,1012.33
2022-11-25T05:11:06.773Z,1012.31
2022-11-25T05:12:06.772Z,1012.35
2022-11-25T05:13:06.693Z,1012.36
2022-11-25T05:14:06.659Z,1012.36
2022-11-25T05:15:06.622Z,1012.34
2022-11-25T05:16:06.580Z,1012.34
2022-11-25T05:17:06.607Z,1012.32
2022-11-25T05:18:06.570Z,1012.32
2022-11-25T05:19:06.476Z,1012.33
2022-11-25T05:20:06.433Z,1012.33
2022-11-25T05:21:06.403Z,1012.32
2022-11-25T05:22:06.370Z,1012.34
2022-11-25T05:23:06.332Z,1012.38
2022-11-25T05:24:06.343Z,1012.37
2022-11-25T05:25:06.263Z,1012.31
2022-11-25T05:26:06.217Z,1012.36
2022-11-25T05:27:06.185Z,1012.29
2022-11-25T05:28:06.150Z,1012.31
2022-11-25T05:29:06.105Z,1012.32
2022-11-25T05:30:06.129Z,1012.35
2022-11-25T05:31:06.108Z,1012.33
2022-11-25T05:32:05.997Z,1012.28
2022-11-25T05:33:05.966Z,1012.30
2022-11-25T05:34:05.936Z,1012.29
2022-11-25T05:35:05.891Z,1012.27
2022-11-25T05:36:06.080Z,1012.28
2022-11-25T05:37:05.825Z,1012.26
2022-11-25T05:38:05.777Z,1012.31
2022-11-25T05:39:05.743Z,1012.27
2022-11-25T05:40:05.702Z,1012.30
2022-11-25T05:41:05.671Z,1012.27
2022-11-25T05:42:05.683Z,1012.30
2022-11-25T05:43:05.593Z,1012.32
2022-11-25T05:44:05.558Z,1012.30
2022-11-25T05:45:05.522Z,1012.29
2022-11-25T05:46:05.545Z,1012.27
2022-11-25T05:47:05.525Z,1012.29
2022-11-25T05:48:05.407Z,1012.30
2022-11-25T05:49:05.512Z,1012.29
2022-11-25T05:50:05.335Z,1012.30
2022-11-25T05:51:05.299Z,1012.30
2022-11-25T05:52:05.280Z,1012.31
2022-11-25T05:53:05.229Z,1012.27
2022-11-25T05:54:05.185Z,1012.31
2022-11-25T05:55:05.214Z,1012.29
2022-11-25T05:56:05.113Z,1012.33
2022-11-25T05:57:05.087Z,1012.33
2022-11-25T05:58:05.047Z,1012.35
2022-11-25T05:59:05.045Z,1012.36
2022-11-25T06:00:05.017Z,1012.38
2022-11-25T06:01:04.941Z,1012.38
2022-11-25T06:02:04.946Z,1012.38
2022-11-25T06:03:04.962Z,1012.41
2022-11-25T06:04:04.844Z,1012.39
2022-11-25T06:05:04.777Z,1012.38
2022-11-25T06:06:04.794Z,1012.41
2022-11-25T06:07:04.708Z,1012.40
2022-11-25T06:08:04.688Z,1012.48
2022-11-25T06:09:04.630Z,1012.51
2022-11-25T06:10:05.572Z,1012.49
2022-11-25T06:11:04.564Z,1012.41
2022-11-25T06:12:04.574Z,1012.50
2022-11-25T06:13:04.483Z,1012.49
2022-11-25T06:14:04.447Z,1012.51
2022-11-25T06:15:04.406Z,1012.55
2022-11-25T06:16:07.668Z,1012.57
2022-11-25T06:17:04.331Z,1012.61
2022-11-25T06:18:04.363Z,1012.58
2022-11-25T06:19:04.258Z,1012.59
2022-11-25T06:20:04.219Z,1012.53
2022-11-25T06:21:04.212Z,1012.57
2022-11-25T06:22:04.147Z,1012.54
2022-11-25T06:23:04.105Z,1012.55
2022-11-25T06:24:04.114Z,1012.52
2022-11-25T06:25:04.302Z,1012.58
2022-11-25T06:26:04.043Z,1012.62
2022-11-25T06:27:03.956Z,1012.63
2022-11-25T06:28:19.319Z,1012.67
2022-11-25T06:29:03.888Z,1012.66
2022-11-25T06:30:03.903Z,1012.71
2022-11-25T06:31:03.852Z,1012.71
2022-11-25T06:32:03.772Z,1012.73
2022-11-25T06:33:03.733Z,1012.73
2022-11-25T06:34:03.703Z,1012.76
2022-11-25T06:35:03.655Z,1012.75
2022-11-25T06:36:03.703Z,1012.76
2022-11-25T06:37:03.584Z,1012.75
2022-11-25T06:38:03.543Z,1012.83
2022-11-25T06:39:03.532Z,1012.82
2022-11-25T06:40:03.513Z,1012.81
2022-11-25T06:41:03.435Z,1012.80
2022-11-25T06:42:03.469Z,1012.80
2022-11-25T06:43:03.362Z,1012.78
2022-11-25T06:44:03.342Z,1012.77
2022-11-25T06:45:03.276Z,1012.81
2022-11-25T06:46:03.327Z,1012.77
2022-11-25T06:47:03.255Z,1012.80
2022-11-25T06:48:03.172Z,1012.81
2022-11-25T06:49:03.134Z,1012.88
2022-11-25T06:50:03.099Z,1012.87
2022-11-25T06:51:03.055Z,1012.86
2022-11-25T06:52:03.021Z,1012.86
2022-11-25T06:53:03.049Z,1012.85
2022-11-25T06:54:02.945Z,1012.86
2022-11-25T06:55:02.912Z,1012.84
2022-11-25T06:56:02.908Z,1012.87
2022-11-25T06:57:02.867Z,1012.85
2022-11-25T06:58:28.191Z,1012.86
2022-11-25T06:59:02.941Z,1012.85
2022-11-25T07:00:02.717Z,1012.92
2022-11-25T07:01:02.756Z,1012.87
2022-11-25T07:02:02.701Z,1012.88
2022-11-25T07:03:02.663Z,1012.88
2022-11-25T07:04:02.564Z,1012.90
2022-11-25T07:05:02.525Z,1012.93
2022-11-25T07:06:02.491Z,1012.89
2022-11-25T07:07:02.499Z,1012.91
2022-11-25T07:08:02.427Z,1012.96
2022-11-25T07:09:02.373Z,1012.91
2022-11-25T07:10:02.342Z,1012.93
2022-11-25T07:11:02.303Z,1012.92
2022-11-25T07:12:02.310Z,1012.96
2022-11-25T07:13:02.231Z,1012.94
2022-11-25T07:14:02.193Z,1012.92
2022-11-25T07:15:02.154Z,1012.93
2022-11-25T07:16:02.221Z,1012.92
2022-11-25T07:17:02.078Z,1012.91
2022-11-25T07:18:02.098Z,1012.95
2022-11-25T07:19:02.026Z,1012.91
2022-11-25T07:20:01.973Z,1012.96
2022-11-25T07:21:01.937Z,1012.94
2022-11-25T07:22:01.891Z,1012.91
2022-11-25T07:23:01.853Z,1012.90
2022-11-25T07:24:01.929Z,1012.94
2022-11-25T07:25:01.774Z,1012.96
2022-11-25T07:26:01.743Z,1012.96
2022-11-25T07:27:01.698Z,1012.98
2022-11-25T07:28:01.675Z,1012.99
2022-11-25T07:29:01.629Z,1012.97
2022-11-25T07:30:54.389Z,1013.01
2022-11-25T07:32:04.521Z,1013.05
2022-11-25T07:33:01.522Z,1013.05
2022-11-25T07:34:01.454Z,1013.06
2022-11-25T07:35:01.415Z,1013.05
2022-11-25T07:36:01.434Z,1013.05
2022-11-25T07:37:01.337Z,1013.01
2022-11-25T07:38:01.310Z,1013.01
2022-11-25T07:39:01.279Z,1013.06
2022-11-25T07:40:01.271Z,1013.00
2022-11-25T07:41:01.183Z,1013.01
2022-11-25T07:42:01.206Z,1013.04
2022-11-25T07:43:01.119Z,1013.07
2022-11-25T07:44:01.078Z,1013.04
2022-11-25T07:45:01.037Z,1013.10
2022-11-25T07:46:01.028Z,1013.06
2022-11-25T07:47:00.992Z,1013.09
2022-11-25T07:48:00.983Z,1013.11
2022-11-25T07:49:00.894Z,1013.06
2022-11-25T07:50:00.884Z,1013.09
2022-11-25T07:51:00.817Z,1013.10
2022-11-25T07:52:00.790Z,1013.10
2022-11-25T07:53:00.799Z,1013.13
2022-11-25T07:54:00.753Z,1013.12
2022-11-25T07:55:00.668Z,1013.15
2022-11-25T07:56:00.669Z,1013.13
2022-11-25T07:57:00.651Z,1013.15
2022-11-25T07:58:00.565Z,1013.15
2022-11-25T07:59:00.529Z,1013.14
2022-11-25T08:00:00.598Z,1013.19
2022-11-25T08:01:00.445Z,1013.17
2022-11-25T08:02:00.499Z,1013.15
2022-11-25T08:03:00.533Z,1013.18
2022-11-25T08:04:00.346Z,1013.15
2022-11-25T08:05:00.322Z,1013.21
2022-11-25T08:06:00.310Z,1013.19
2022-11-25T08:07:00.258Z,1013.22
2022-11-25T08:08:00.289Z,1013.22
2022-11-25T08:09:00.181Z,1013.22
2022-11-25T08:10:00.163Z,1013.21
2022-11-25T08:11:00.197Z,1013.22
2022-11-25T08:12:00.148Z,1013.25
2022-11-25T08:13:00.202Z,1013.26
2022-11-25T08:13:59.983Z,1013.28
2022-11-25T08:14:59.938Z,1013.29
2022-11-25T08:15:59.933Z,1013.29
2022-11-25T08:16:59.941Z,1013.32
2022-11-25T08:17:59.841Z,1013.31
2022-11-25T08:18:59.800Z,1013.31
2022-11-25T08:19:59.750Z,1013.33
2022-11-25T08:20:59.717Z,1013.36
2022-11-25T08:21:59.736Z,1013.35
2022-11-25T08:22:59.656Z,1013.31
2022-11-25T08:23:59.608Z,1013.31
2022-11-25T08:24:59.570Z,1013.33
2022-11-25T08:25:59.535Z,1013.34
2022-11-25T08:26:59.584Z,1013.31
2022-11-25T08:27:59.467Z,1013.33
2022-11-25T08:28:59.423Z,1013.30
2022-11-25T08:29:59.385Z,1013.30
2022-11-25T08:30:59.386Z,1013.30
2022-11-25T08:31:59.312Z,1013.31
2022-11-25T08:32:59.362Z,1013.29
2022-11-25T08:33:59.242Z,1013.29
2022-11-25T08:34:59.198Z,1013.27
2022-11-25T08:35:59.172Z,1013.30
2022-11-25T08:36:59.135Z,1013.30
2022-11-25T08:37:59.237Z,1013.31
2022-11-25T08:38:59.116Z,1013.27
2022-11-25T08:39:59.290Z,1013.31
2022-11-25T08:40:58.990Z,1013.28
2022-11-25T08:41:58.954Z,1013.28
2022-11-25T08:42:58.907Z,1013.32
2022-11-25T08:43:58.874Z,1013.33
2022-11-25T08:44:58.906Z,1013.28
2022-11-25T08:45:58.875Z,1013.30
2022-11-25T08:46:58.866Z,1013.33
2022-11-25T08:47:58.728Z,1013.29
2022-11-25T08:48:58.692Z,1013.28
2022-11-25T08:49:58.655Z,1013.33
2022-11-25T08:50:58.686Z,1013.31
2022-11-25T08:51:58.575Z,1013.32
2022-11-25T08:52:58.540Z,1013.29
2022-11-25T08:53:58.507Z,1013.30
2022-11-25T08:54:58.464Z,1013.30
2022-11-25T08:55:58.444Z,1013.36
2022-11-25T08:56:58.444Z,1013.33
2022-11-25T08:57:58.365Z,1013.35
2022-11-25T08:58:58.322Z,1013.32
2022-11-25T08:59:58.297Z,1013.32
2022-11-25T09:00:58.248Z,1013.30
2022-11-25T09:01:58.276Z,1013.29
2022-11-25T09:02:58.313Z,1013.34
2022-11-25T09:03:58.143Z,1013.29
2022-11-25T09:04:58.115Z,1013.30
2022-11-25T09:05:59.043Z,1013.33
2022-11-25T09:06:58.030Z,1013.32
2022-11-25T09:07:58.046Z,1013.33
2022-11-25T09:08:58.014Z,1013.36
2022-11-25T09:09:57.922Z,1013.37
2022-11-25T09:10:57.924Z,1013.40
2022-11-25T09:11:57.852Z,1013.39
2022-11-25T09:12:57.807Z,1013.39
2022-11-25T09:13:57.845Z,1013.37
2022-11-25T09:14:57.819Z,1013.31
2022-11-25T09:15:57.717Z,1013.34
2022-11-25T09:16:57.675Z,1013.34
2022-11-25T09:17:57.630Z,1013.34
2022-11-25T09:18:57.598Z,1013.33
2022-11-25T09:19:57.554Z,1013.28
2022-11-25T09:20:57.597Z,1013.30
2022-11-25T09:21:57.494Z,1013.28
2022-11-25T09:22:57.454Z,1013.29
2022-11-25T09:23:57.995Z,1013.27
2022-11-25T09:24:57.384Z,1013.25
2022-11-25T09:25:57.343Z,1013.32
2022-11-25T09:26:57.365Z,1013.30
2022-11-25T09:27:57.286Z,1013.30
2022-11-25T09:28:57.247Z,1013.30
2022-11-25T09:29:57.201Z,1013.30
2022-11-25T09:30:57.220Z,1013.28
2022-11-25T09:31:57.189Z,1013.26
2022-11-25T09:32:57.149Z,1013.24
2022-11-25T09:33:57.050Z,1013.26
2022-11-25T09:34:57.021Z,1013.32
2022-11-25T09:35:56.982Z,1013.36
2022-11-25T09:36:56.962Z,1013.32
2022-11-25T09:37:57.508Z,1013.34
2022-11-25T09:38:56.941Z,1013.31
2022-11-25T09:39:56.832Z,1013.28
2022-11-25T09:40:56.803Z,1013.30
2022-11-25T09:41:56.760Z,1013.29
2022-11-25T09:42:56.730Z,1013.30
2022-11-25T09:43:56.697Z,1013.29
2022-11-25T09:44:56.758Z,1013.33
2022-11-25T09:45:56.615Z,1013.33
2022-11-25T09:46:56.643Z,1013.31
2022-11-25T09:47:58.027Z,1013.30
2022-11-25T09:48:56.518Z,1013.29
2022-11-25T09:49:56.477Z,1013.29
2022-11-25T09:50:56.500Z,1013.30
2022-11-25T09:51:56.416Z,1013.29
2022-11-25T09:52:56.382Z,1013.26
2022-11-25T09:53:56.333Z,1013.28
2022-11-25T09:54:56.302Z,1013.31
2022-11-25T09:56:01.346Z,1013.29
2022-11-25T09:56:56.299Z,1013.32
2022-11-25T09:57:59.402Z,1013.33
2022-11-25T09:58:56.153Z,1013.33
2022-11-25T09:59:56.117Z,1013.33
2022-11-25T10:00:56.086Z,1013.33
2022-11-25T10:01:56.128Z,1013.33
2022-11-25T10:02:56.253Z,1013.34
2022-11-25T10:03:55.972Z,1013.40
2022-11-25T10:04:55.946Z,1013.39
2022-11-25T10:05:55.908Z,1013.41
2022-11-25T10:06:55.990Z,1013.35
2022-11-25T10:07:55.835Z,1013.38
2022-11-25T10:08:55.897Z,1013.39
2022-11-25T10:09:55.765Z,1013.36
2022-11-25T10:10:55.731Z,1013.37
2022-11-25T10:11:55.692Z,1013.36
2022-11-25T10:12:55.667Z,1013.37
2022-11-25T10:13:55.621Z,1013.38
2022-11-25T10:14:55.643Z,1013.38
2022-11-25T10:15:55.616Z,1013.34
2022-11-25T10:16:55.522Z,1013.38
2022-11-25T10:17:55.479Z,1013.36
2022-11-25T10:18:55.439Z,1013.37
2022-11-25T10:19:55.409Z,1013.38
2022-11-25T10:20:55.502Z,1013.39
2022-11-25T10:21:55.340Z,1013.37
2022-11-25T10:22:55.301Z,1013.40
2022-11-25T10:23:55.283Z,1013.39
2022-11-25T10:24:55.363Z,1013.42
2022-11-25T10:25:55.272Z,1013.43
2022-11-25T10:26:55.211Z,1013.42
2022-11-25T10:27:55.131Z,1013.42
2022-11-25T10:28:55.096Z,1013.43
2022-11-25T10:29:55.064Z,1013.43
2022-11-25T10:30:55.096Z,1013.40
2022-11-25T10:31:55.040Z,1013.41
2022-11-25T10:33:00.796Z,1013.38
2022-11-25T10:33:54.913Z,1013.43
2022-11-25T10:34:54.883Z,1013.39
2022-11-25T10:35:54.850Z,1013.39
2022-11-25T10:36:54.811Z,1013.38
2022-11-25T10:37:54.774Z,1013.37
2022-11-25T10:38:54.794Z,1013.33
2022-11-25T10:39:54.700Z,1013.36
2022-11-25T10:40:54.671Z,1013.37
2022-11-25T10:41:54.706Z,1013.40
2022-11-25T10:42:54.605Z,1013.37
2022-11-25T10:43:54.612Z,1013.36
2022-11-25T10:44:54.529Z,1013.38
2022-11-25T10:45:54.503Z,1013.34
2022-11-25T10:47:13.660Z,1013.36
2022-11-25T10:47:54.493Z,1013.36
2022-11-25T10:48:54.393Z,1013.36
2022-11-25T10:49:54.403Z,1013.35
2022-11-25T10:50:54.328Z,1013.32
2022-11-25T10:51:55.335Z,1013.34
2022-11-25T10:52:54.253Z,1013.31
2022-11-25T10:53:54.212Z,1013.32
2022-11-25T10:54:54.177Z,1013.27
2022-11-25T10:55:54.204Z,1013.31
2022-11-25T10:56:54.116Z,1013.29
2022-11-25T10:57:54.070Z,1013.31
2022-11-25T10:58:54.043Z,1013.27
2022-11-25T10:59:54.000Z,1013.26
2022-11-25T11:00:53.976Z,1013.23
2022-11-25T11:01:54.021Z,1013.24
2022-11-25T11:02:53.959Z,1013.23
2022-11-25T11:03:53.972Z,1013.27
2022-11-25T11:04:53.835Z,1013.26
2022-11-25T11:05:53.790Z,1013.25
2022-11-25T11:06:53.758Z,1013.24
2022-11-25T11:07:53.862Z,1013.21
2022-11-25T11:08:53.692Z,1013.24
2022-11-25T11:09:53.662Z,1013.22
2022-11-25T11:10:57.280Z,1013.19
2022-11-25T11:11:53.586Z,1013.17
2022-11-25T11:12:53.555Z,1013.17
2022-11-25T11:13:53.772Z,1013.18
2022-11-25T11:14:53.487Z,1013.22
2022-11-25T11:15:53.477Z,1013.24
2022-11-25T11:16:53.416Z,1013.25
2022-11-25T11:17:53.378Z,1013.22
2022-11-25T11:18:53.345Z,1013.20
2022-11-25T11:19:53.359Z,1013.25
2022-11-25T11:20:53.273Z,1013.22
2022-11-25T11:21:53.242Z,1013.28
2022-11-25T11:22:53.207Z,1013.27
2022-11-25T11:23:53.165Z,1013.24
2022-11-25T11:24:53.138Z,1013.23
2022-11-25T11:25:53.148Z,1013.23
2022-11-25T11:26:53.078Z,1013.23
2022-11-25T11:27:53.033Z,1013.27
2022-11-25T11:28:53.021Z,1013.25
2022-11-25T11:29:52.975Z,1013.18
2022-11-25T11:30:53.064Z,1013.16
2022-11-25T11:31:52.953Z,1013.13
2022-11-25T11:32:52.865Z,1013.10
2022-11-25T11:33:52.847Z,1013.13
2022-11-25T11:34:52.796Z,1013.10
2022-11-25T11:35:52.759Z,1013.11
2022-11-25T11:36:52.805Z,1013.12
2022-11-25T11:37:52.684Z,1013.10
2022-11-25T11:38:52.668Z,1013.12
2022-11-25T11:39:53.530Z,1013.09
2022-11-25T11:40:52.581Z,1013.07
2022-11-25T11:41:52.610Z,1013.03
2022-11-25T11:42:52.521Z,1013.02
2022-11-25T11:43:52.486Z,1013.03
2022-11-25T11:44:52.448Z,1013.04
2022-11-25T11:45:52.410Z,1013.03
2022-11-25T11:46:52.424Z,1013.06
2022-11-25T11:47:52.417Z,1013.04
2022-11-25T11:48:53.609Z,1013.02
2022-11-25T11:49:52.281Z,1013.02
2022-11-25T11:50:53.131Z,1013.01
2022-11-25T11:51:52.211Z,1013.03
2022-11-25T11:52:52.180Z,1013.07
2022-11-25T11:53:52.190Z,1013.09
2022-11-25T11:54:52.098Z,1013.10
2022-11-25T11:56:11.862Z,1013.12
2022-11-25T11:56:55.307Z,1013.11
2022-11-25T11:57:52.037Z,1013.12
2022-11-25T11:58:51.966Z,1013.12
2022-11-25T11:59:52.194Z,1013.13
2022-11-25T12:00:51.892Z,1013.09
2022-11-25T12:01:51.891Z,1013.13
2022-11-25T12:02:51.964Z,1013.07
2022-11-25T12:03:54.350Z,1013.12
2022-11-25T12:04:51.760Z,1013.09
2022-11-25T12:05:51.729Z,1013.10